Ellsburg, Minnesota
Current Conditions -  °F | °C
As of 12:31 PM on Saturday 20 Dec 2014 (Local Time) from KEVM Reporting Station
Haze Haze  
Wind Chill: 22°   Ceiling: 700
Heat Index: 30°   Visibility: 5mi
Dew Point: 28°   Wind: 9mph
Humidity: 93%   Direction: 200°SSW
Pressure: 30.06"   Gusts: NA
Location:  47.2457°N, 92.4531°W
Report Text: KEVM 201831Z AUTO 20008KT 5SM BR OVC007 M01/M02 A3006 RMK AO2
Loading
Personal Weather Stations






























Interactive Weather Map New forecast layout! Learn more

10-Day Weather Forecast

Advertisements
Track Severe Weather on mobile